Details From EGSS - London Stansted
To GCGM - La Gomera
Flight Number -
Tags Generated
Created
Modified
Stats Distance 1,633 nm / 3,024 km
Max Altitude 0 ft / 0 m
Waypoints 5
Social Downloads 0
Likes 0
Share VATSIM

Download

Looking for another format? Having issues loading an existing format? Contact us
Advertisement - Login to hide

Notes

Generated

Route

EGSS BASIK VGO LGM GCGM

ID Type Via Altitude Latitude Longitude Leg Dist Tot Dist Heading (true) Name
O EGSS APT - 0 ft / 0 m 51.87508˚ 0.21993˚ - 0 nm - -
BASIK FIX - 0 ft / 0 m 48.95361˚ -2.95111˚ 213 nm 213 nm 216° / 213° -
VGO VOR - 0 ft / 0 m 42.32131˚ -8.60164˚ 463 nm 676 nm 213° / 209° VIGO VOR-DME
LGM VOR - 0 ft / 0 m 28.02874˚ -17.21487˚ 955 nm 1632 nm 209° / 204° LA GOMERA VOR-DME
O GCGM APT - 0 ft / 0 m 28.02859˚ -17.22214˚ 0 nm 1632 nm 269° / 269° -

Altitude Profile

Advertisement - Login to hide

Weather


0- 5 10 15 20 25 30 35+ Temperature / ° C

Clouds and Precipitation
Forecast for 2017-12-18 18:00 UTC. Updated 2 hours ago

Ground ~20,000 ft ~40,000 ft Winds

EGSS

Details ICAO EGSS (STN)
Name London Stansted
Region United Kingdom
Timezone Europe/London (UTC+0.0)
Stats Elevation 348 ft / 106 m (AMSL)
Location 51.885097° 0.234962°
Runways 1
Magnetic Variation 0.361° W

METAR

EGSS 181920Z AUTO 27004KT 6000 NCD 02/02 Q1032

Decode

TAF

TAF EGSS 181700Z 1818/1924 VRB02KT CAVOK BECMG 1818/1820 7000 PROB40 1818/1820 0300 FG BKN001 BECMG 1820/1823 0100 FG VV/// TEMPO 1821/1910 FZFG BECMG 1910/1913 3000 BR SCT004 PROB30 TEMPO 1913/1917 1200 BKN002 PROB40 TEMPO 1917/1924 0300 FG VV///

Decode

Departure Runways

ID Width Length Bearing (true) Bearing (mag) Surface Threshold Offset Overrun Length
04 151 ft / 46 m 10,011 ft / 3,052 m 42.79° 43.15° Asphalt 994 ft / 303 m 0 ft / 0 m
22 151 ft / 46 m 10,011 ft / 3,052 m 222.81° 223.17° Asphalt 0 ft / 0 m 0 ft / 0 m

GCGM

Details ICAO GCGM (GMZ)
Name La Gomera
Region Canary Islands
Timezone Atlantic/Canary (UTC+0.0)
Stats Elevation 715 ft / 218 m (AMSL)
Location 28.029627° -17.214603°
Runways 1
Magnetic Variation 5.358° W

METAR

GCGM 181900Z AUTO 00000KT 9999 NCD 18/11 Q1023 RMK R09/00000KT ARP/00000KT

Decode

TAF

TAF GCGM 181400Z 1815/1915 21006KT 9999 FEW030 TX22/1913Z TN17/1906Z

Decode

Destination Runways

ID Width Length Bearing (true) Bearing (mag) Surface Threshold Offset Overrun Length
09 98 ft / 30 m 4,914 ft / 1,498 m 81.17° 86.53° Asphalt 0 ft / 0 m 0 ft / 0 m
27 98 ft / 30 m 4,914 ft / 1,498 m 261.18° 266.54° Asphalt 0 ft / 0 m 0 ft / 0 m

Popular Alternatives